Station: Tindal  

  Atmospheric Gas Attenuation - ITU Rec 676-11   ----------------- dB/100km -----------------
Date Time Temp RH % AH g/m3 Dew Point Wind Direction Speed kph Gust kph Barometer mB Rainfall Since 9am 24GHz 47GHz 76GHz 122GHz 134GHz 241GHz
01/09 02:20 21.1 68 12.53 15 6 7 1016.7 0 27.5 30.2 51.8 136.6 140.3 485.9
01/09 02:10 20.7 72 12.96 15.5 4 7 1016.7 0 28.5 31.1 53.9 142.1 147.0 509.1
01/09 02:00 20.3 69 12.13 14.4 7 9 1017 0 26.7 29.8 50.7 133.5 136.3 471.9
01/09 01:50 20.3 69 12.13 14.4 9 9 1016.9 0 26.7 29.8 50.7 133.5 136.3 471.8
01/09 01:40 20.6 67 11.99 14.3 9 11 1017 0 26.4 29.5 49.9 131.5 133.9 463.4
01/09 01:30 20.8 67 12.13 14.5 9 11 1017.3 0 26.7 29.7 50.4 132.7 135.5 469.0
01/09 01:20 20.9 66 12.02 14.3 9 13 1017.1 0 26.5 29.4 49.9 131.3 133.8 463.1
01/09 01:10 21.5 62 11.69 13.9 9 13 1017.1 0 25.7 28.7 48.1 126.8 128.4 444.2
01/09 01:00 21.6 62 11.76 14 9 11 1017.5 0 25.9 28.8 48.4 127.4 129.2 447.1
01/09 00:50 22.6 59 11.85 14.2 7 11 1017.3 0 26.0 28.6 48.1 126.7 128.7 445.5
01/09 00:40 22.9 60 12.26 14.7 7 9 1017.3 0 26.8 29.2 49.6 130.6 133.6 462.6
01/09 00:30 22.9 60 12.26 14.7 7 9 1017.7 0 26.8 29.2 49.6 130.7 133.6 462.7
01/09 00:20 22.7 60 12.12 14.5 7 13 1017.4 0 26.6 29.0 49.1 129.5 132.1 457.3
01/09 00:10 22.4 57 11.32 13.5 9 13 1017.5 0 24.9 27.8 46.2 121.5 122.1 422.5
01/09 00:00 22.6 55 11.05 13.1 13 15 1017.9 0 24.3 27.3 45.0 118.4 118.4 409.5
31/08 23:50 23 54 11.1 13.2 9 15 1017.8 0 24.4 27.3 45.0 118.3 118.4 409.6
31/08 23:40 24.2 51 11.22 13.4 11 17 1017.7 0 24.6 27.1 44.7 117.8 118.1 408.7
31/08 23:30 24.7 49 11.09 13.3 13 19 1017.6 0 24.3 26.8 44.0 115.7 115.7 400.5
31/08 23:20 24.7 48 10.86 13 13 17 1017.6 0 23.8 26.4 43.1 113.4 112.9 390.5
31/08 23:10 24.9 47 10.76 12.8 13 19 1017.5 0 23.6 26.2 42.6 112.1 111.4 385.2
31/08 23:00 25.1 46 10.65 12.7 13 20 1017.5 0 23.3 26.0 42.1 110.7 109.7 379.6
31/08 22:50 25.1 45 10.42 12.3 15 22 1017.5 0 22.8 25.6 41.3 108.5 107.0 369.8
31/08 22:40 24.6 44 9.9 11.5 13 19 1017.4 0 21.8 25.0 39.6 104.0 101.3 350.1
31/08 22:30 23.9 43 9.3 10.6 13 15 1017.4 0 20.6 24.3 37.8 99.1 95.1 328.1
31/08 22:20 22.5 47 9.39 10.6 11 13 1017.2 0 20.8 24.8 38.7 101.7 97.8 337.5
31/08 22:10 21.2 53 9.82 11.2 11 13 1017.2 0 21.8 25.8 41.0 107.7 104.8 361.7
31/08 22:00 21.1 54 9.95 11.4 0 11 1017.1 0 22.1 26.1 41.5 109.1 106.5 367.8
31/08 21:50 21.2 54 10.01 11.5 6 7 1016.9 0 22.2 26.1 41.7 109.6 107.1 370.0
31/08 21:40 21.7 52 9.92 11.4 6 7 1016.9 0 22.0 25.8 41.1 108.0 105.3 363.7
31/08 21:30 21.9 52 10.03 11.6 6 7 1016.9 0 22.2 25.9 41.4 108.8 106.4 367.6
31/08 21:20 21.9 51 9.84 11.3 7 9 1016.9 0 21.8 25.6 40.7 106.9 104.1 359.3
31/08 21:10 22.5 48 9.59 10.9 7 9 1016.8 0 21.2 25.1 39.5 103.6 100.2 345.9
31/08 21:00 22.8 48 9.75 11.2 9 11 1016.7 0 21.6 25.3 39.9 104.8 101.8 351.4
31/08 20:50 22.9 47 9.6 11 7 11 1016.6 0 21.2 25.0 39.3 103.2 99.8 344.6
31/08 20:40 22.8 48 9.75 11.2 7 7 1016.5 0 21.6 25.2 39.9 104.8 101.8 351.4
31/08 20:30 23.2 47 9.77 11.3 7 9 1016.4 0 21.6 25.2 39.8 104.5 101.5 350.4
31/08 20:20 23.4 47 9.88 11.5 7 9 1016.2 0 21.8 25.3 40.1 105.3 102.5 354.2
31/08 20:10 24.2 44 9.68 11.2 6 7 1016.1 0 21.4 24.7 38.9 102.3 99.1 342.3
31/08 20:00 24.7 42 9.51 10.9 6 7 1016 0 21.0 24.4 38.1 100.0 96.5 333.1
31/08 19:50 25.2 41 9.54 11 6 7 1015.9 0 21.0 24.3 38.0 99.7 96.2 332.3
31/08 19:40 25.8 39 9.39 10.8 7 7 1015.8 0 20.7 23.9 37.1 97.5 93.8 323.7
31/08 19:30 26.3 38 9.41 10.9 7 7 1015.6 0 20.7 23.8 37.0 97.1 93.4 322.5
31/08 19:20 26.8 36 9.16 10.5 7 9 1015.5 0 20.1 23.3 35.9 94.2 90.0 310.5
31/08 19:10 27.3 34 8.9 10.1 9 9 1015.4 0 19.6 22.8 34.8 91.2 86.5 298.4
31/08 19:00 27.8 33 8.88 10.1 9 11 1015.2 0 19.5 22.7 34.5 90.5 85.7 295.8
31/08 18:50 28.2 32 8.8 9.9 9 11 1015.2 0 19.3 22.4 34.1 89.3 84.4 291.2
31/08 18:40 28.8 30 8.52 9.5 11 13 1015.2 0 18.7 21.9 32.9 86.2 80.8 278.5
31/08 18:30 29.5 29 8.56 9.6 11 15 1015 0 18.8 21.8 32.8 85.8 80.5 277.6
31/08 18:20 30.3 27 8.32 9.2 13 17 1015 0 18.2 21.3 31.7 83.0 77.2 266.1
31/08 18:10 30.7 27 8.5 9.6 13 19 1014.8 0 18.6 21.5 32.1 84.1 78.7 271.4
31/08 18:00 31.1 26 8.37 9.3 13 17 1014.6 0 18.3 21.2 31.5 82.6 76.9 265.3
31/08 17:50 31.3 26 8.46 9.5 17 24 1014.6 0 18.5 21.3 31.7 83.1 77.7 267.9
31/08 17:40 31.6 26 8.59 9.8 19 28 1014.6 0 18.7 21.4 32.0 83.9 78.8 271.7
31/08 17:30 31.7 25 8.31 9.3 19 24 1014.3 0 18.2 21.0 31.1 81.5 75.7 261.1
31/08 17:20 31.9 24 8.06 8.8 19 24 1014.5 0 17.6 20.6 30.3 79.2 73.0 251.6
31/08 17:10 32 24 8.1 8.9 20 26 1014.5 0 17.7 20.6 30.3 79.4 73.3 252.7
31/08 17:00 32.2 24 8.19 9.1 20 37 1014.3 0 17.9 20.7 30.5 80.0 74.1 255.3
31/08 16:50 32.1 25 8.49 9.6 19 22 1014.4 0 18.5 21.1 31.5 82.6 77.2 266.4
31/08 16:40 32.3 24 8.24 9.2 19 30 1014.5 0 18.0 20.8 30.7 80.3 74.5 256.8
31/08 16:30 32.5 26 9.02 10.5 15 28 1014.3 0 19.6 21.7 33.0 86.6 82.3 284.4
31/08 16:20 32.3 26 8.92 10.4 15 22 1014.4 0 19.4 21.6 32.8 86.0 81.5 281.4
31/08 16:10 32.3 25 8.58 9.8 24 33 1014.6 0 18.7 21.2 31.7 83.2 78.0 269.1
31/08 16:00 32.5 25 8.67 9.9 15 24 1014.5 0 18.9 21.3 31.9 83.7 78.7 271.7
31/08 15:50 32.1 25 8.49 9.6 22 28 1014.6 0 18.5 21.1 31.5 82.6 77.2 266.4
31/08 15:40 32.7 25 8.76 10.1 11 24 1014.7 0 19.0 21.3 32.1 84.3 79.5 274.3
31/08 15:30 32.4 25 8.62 9.9 20 30 1014.8 0 18.8 21.2 31.8 83.4 78.3 270.2
31/08 15:20 32.8 25 8.81 10.2 22 30 1015 0 19.1 21.4 32.3 84.6 79.9 275.9
31/08 15:10 32.3 26 8.92 10.4 19 28 1015.1 0 19.4 21.6 32.8 86.1 81.5 281.6
31/08 15:00 32.2 25 8.53 9.7 20 28 1015.2 0 18.6 21.2 31.6 82.9 77.6 267.7
31/08 14:50 32.3 25 8.58 9.8 19 33 1015.4 0 18.7 21.2 31.8 83.2 78.0 269.2
31/08 14:40 32.5 25 8.67 9.9 24 35 1015.6 0 18.9 21.3 32.0 83.8 78.8 271.9
31/08 14:30 32.6 25 8.72 10 19 35 1015.8 0 19.0 21.3 32.1 84.1 79.2 273.4
31/08 14:20 31.8 25 8.35 9.3 26 39 1016 0 18.2 21.0 31.2 81.8 76.2 262.6
31/08 14:10 32.3 27 9.26 10.9 20 32 1016.2 0 20.1 22.1 33.9 89.1 85.2 294.4
31/08 14:00 31.9 26 8.73 10 22 33 1016.4 0 19.0 21.5 32.4 85.0 80.0 276.2
31/08 13:50 31.3 26 8.46 9.5 20 30 1016.7 0 18.5 21.3 31.8 83.3 77.8 268.4
31/08 13:40 31.8 25 8.35 9.3 24 35 1016.8 0 18.2 21.1 31.3 81.9 76.2 262.8
31/08 13:30 31.7 25 8.31 9.3 24 35 1016.9 0 18.2 21.0 31.2 81.7 75.9 261.7
31/08 13:20 32.4 26 8.97 10.4 26 43 1017.1 0 19.5 21.7 33.0 86.6 82.1 283.5
31/08 13:10 31.7 26 8.64 9.8 24 35 1017.2 0 18.8 21.5 32.2 84.5 79.4 273.8
31/08 13:00 31.4 27 8.83 10.2 20 32 1017.4 0 19.2 21.8 33.0 86.4 81.7 281.8
31/08 12:50 31.4 26 8.5 9.6 24 39 1017.6 0 18.6 21.4 31.9 83.6 78.2 269.7
31/08 12:40 30.9 27 8.6 9.7 24 41 1017.7 0 18.8 21.6 32.4 85.0 79.7 275.1
31/08 12:30 31 27 8.64 9.8 26 46 1018 0 18.9 21.7 32.5 85.3 80.1 276.3
31/08 12:20 31.3 27 8.78 10.1 26 37 1018.2 0 19.1 21.8 32.9 86.2 81.3 280.5
31/08 12:10 30.5 27 8.41 9.4 26 48 1018.4 0 18.4 21.5 32.0 83.8 78.2 269.5
31/08 12:00 30.7 27 8.5 9.6 24 35 1018.6 0 18.6 21.6 32.2 84.4 78.9 272.2
31/08 11:50 30.6 28 8.77 10 26 37 1018.8 0 19.2 22.0 33.1 86.9 81.9 282.6
31/08 11:40 30.7 29 9.13 10.6 22 35 1019.1 0 19.9 22.4 34.3 89.9 85.7 295.9
31/08 11:30 29.6 30 8.9 10.2 26 41 1019.2 0 19.5 22.4 34.0 89.1 84.4 291.1
31/08 11:20 29.9 29 8.75 9.9 28 43 1019.4 0 19.1 22.1 33.4 87.5 82.4 284.4
31/08 11:10 30.1 30 9.15 10.6 24 35 1019.6 0 20.0 22.6 34.6 90.8 86.6 298.9
31/08 11:00 29.8 29 8.7 9.9 26 37 1019.6 0 19.0 22.1 33.3 87.2 82.0 282.9
31/08 10:50 29.5 30 8.86 10.1 30 43 1019.8 0 19.4 22.4 33.9 88.9 84.1 290.1
31/08 10:40 29.4 30 8.81 10 26 39 1019.9 0 19.3 22.3 33.8 88.6 83.6 288.5
31/08 10:30 28.9 30 8.57 9.6 28 39 1019.9 0 18.8 22.1 33.2 87.0 81.5 281.1
31/08 10:20 28.8 31 8.81 10 28 41 1020 0 19.3 22.5 34.0 89.2 84.3 290.7
31/08 10:10 28.8 31 8.81 10 24 37 1020.1 0 19.3 22.5 34.0 89.2 84.3 290.7
31/08 10:00 28.6 34 9.56 11.2 28 41 1020 0 20.9 23.5 36.7 96.2 92.8 320.5
31/08 09:50 27.9 36 9.74 11.5 22 30 1020.1 0 21.3 24.0 37.6 98.7 95.6 330.5

Last Refresh: 01-Sep-2026 02:29:43

Bureau of Meteorology